Shady Lake, New Jersey
Current Conditions -  °F | °C
As of 1:53 PM on Tuesday 21 Oct 2014 (Local Time) from KFWN Reporting Station
Overcast Overcast  
Wind Chill: 58°   Ceiling: 7500
Heat Index: 58°   Visibility: 10mi
Dew Point: 50°   Wind: 10mph
Humidity: 75%   Direction: 50°NE
Pressure: 29.86"   Gusts: NA
Location:  41.0879°N, 74.3771°W
Report Text: KFWN 211753Z AUTO 05009KT 10SM OVC075 14/10 A2986 RMK AO2 SLP110 60000 T01440100 10150 20094 58015
Loading
Personal Weather Stations






























Interactive Weather Map New forecast layout! Learn more

10-Day Weather Forecast

Advertisements
Track Severe Weather on mobile